sensor_id;sensor_type;location;lat;lon;timestamp;P1;durP1;ratioP1;P2;durP2;ratioP2
1336;SDS011;662;48.814;9.318;2023-04-03T00:01:36;4.53;;;4.07;;
1336;SDS011;662;48.814;9.318;2023-04-03T00:04:03;6.27;;;4.00;;
1336;SDS011;662;48.814;9.318;2023-04-03T00:06:30;4.00;;;3.60;;
1336;SDS011;662;48.814;9.318;2023-04-03T00:08:56;3.80;;;3.50;;
1336;SDS011;662;48.814;9.318;2023-04-03T00:11:22;3.87;;;3.57;;
1336;SDS011;662;48.814;9.318;2023-04-03T00:13:47;3.40;;;3.10;;
1336;SDS011;662;48.814;9.318;2023-04-03T00:16:13;4.20;;;3.90;;
1336;SDS011;662;48.814;9.318;2023-04-03T00:18:39;8.80;;;4.00;;
1336;SDS011;662;48.814;9.318;2023-04-03T00:21:05;3.97;;;3.57;;
1336;SDS011;662;48.814;9.318;2023-04-03T00:23:31;4.00;;;3.60;;
1336;SDS011;662;48.814;9.318;2023-04-03T00:25:57;6.77;;;3.90;;
1336;SDS011;662;48.814;9.318;2023-04-03T00:28:23;4.30;;;3.90;;
1336;SDS011;662;48.814;9.318;2023-04-03T00:30:49;4.00;;;3.50;;
1336;SDS011;662;48.814;9.318;2023-04-03T00:33:15;5.53;;;3.30;;
1336;SDS011;662;48.814;9.318;2023-04-03T00:35:41;3.80;;;3.50;;
1336;SDS011;662;48.814;9.318;2023-04-03T00:38:07;4.30;;;3.90;;
1336;SDS011;662;48.814;9.318;2023-04-03T00:40:34;3.70;;;3.37;;
1336;SDS011;662;48.814;9.318;2023-04-03T00:43:02;4.17;;;3.77;;
1336;SDS011;662;48.814;9.318;2023-04-03T00:45:40;4.10;;;3.70;;
1336;SDS011;662;48.814;9.318;2023-04-03T00:48:08;4.07;;;3.67;;
1336;SDS011;662;48.814;9.318;2023-04-03T00:50:39;4.20;;;3.80;;
1336;SDS011;662;48.814;9.318;2023-04-03T00:53:06;5.30;;;3.97;;
1336;SDS011;662;48.814;9.318;2023-04-03T00:55:34;3.30;;;3.10;;
1336;SDS011;662;48.814;9.318;2023-04-03T00:58:02;3.87;;;3.57;;
1336;SDS011;662;48.814;9.318;2023-04-03T01:00:28;4.13;;;3.70;;
1336;SDS011;662;48.814;9.318;2023-04-03T01:02:53;3.80;;;3.50;;
1336;SDS011;662;48.814;9.318;2023-04-03T01:05:20;4.07;;;3.63;;
1336;SDS011;662;48.814;9.318;2023-04-03T01:07:46;3.73;;;3.43;;
1336;SDS011;662;48.814;9.318;2023-04-03T01:10:14;4.30;;;3.90;;
1336;SDS011;662;48.814;9.318;2023-04-03T01:12:43;4.57;;;3.77;;
1336;SDS011;662;48.814;9.318;2023-04-03T01:15:11;3.70;;;3.40;;
1336;SDS011;662;48.814;9.318;2023-04-03T01:17:44;4.03;;;3.73;;
1336;SDS011;662;48.814;9.318;2023-04-03T01:28:10;4.50;;;4.10;;
1336;SDS011;662;48.814;9.318;2023-04-03T01:30:43;4.20;;;3.90;;
1336;SDS011;662;48.814;9.318;2023-04-03T01:33:17;5.20;;;3.90;;
1336;SDS011;662;48.814;9.318;2023-04-03T01:35:43;4.30;;;3.50;;
1336;SDS011;662;48.814;9.318;2023-04-03T01:38:08;4.50;;;4.10;;
1336;SDS011;662;48.814;9.318;2023-04-03T01:40:35;3.90;;;3.60;;
1336;SDS011;662;48.814;9.318;2023-04-03T01:43:00;6.33;;;4.27;;
1336;SDS011;662;48.814;9.318;2023-04-03T01:45:26;4.23;;;3.83;;
1336;SDS011;662;48.814;9.318;2023-04-03T01:47:52;4.13;;;3.80;;
1336;SDS011;662;48.814;9.318;2023-04-03T01:50:17;3.67;;;3.37;;
1336;SDS011;662;48.814;9.318;2023-04-03T01:52:43;4.07;;;3.67;;
1336;SDS011;662;48.814;9.318;2023-04-03T01:55:09;5.00;;;4.20;;
1336;SDS011;662;48.814;9.318;2023-04-03T01:57:34;3.93;;;3.67;;
1336;SDS011;662;48.814;9.318;2023-04-03T02:00:00;4.10;;;3.80;;
1336;SDS011;662;48.814;9.318;2023-04-03T02:02:25;5.80;;;3.90;;
1336;SDS011;662;48.814;9.318;2023-04-03T02:04:51;4.57;;;4.10;;
1336;SDS011;662;48.814;9.318;2023-04-03T02:07:17;4.27;;;3.90;;
1336;SDS011;662;48.814;9.318;2023-04-03T02:09:42;3.50;;;3.20;;
1336;SDS011;662;48.814;9.318;2023-04-03T02:12:08;3.73;;;3.43;;
1336;SDS011;662;48.814;9.318;2023-04-03T02:14:33;3.87;;;3.47;;
1336;SDS011;662;48.814;9.318;2023-04-03T02:17:00;3.47;;;3.27;;
1336;SDS011;662;48.814;9.318;2023-04-03T02:19:29;3.60;;;3.30;;
1336;SDS011;662;48.814;9.318;2023-04-03T02:21:56;3.40;;;3.20;;
1336;SDS011;662;48.814;9.318;2023-04-03T02:24:21;6.13;;;3.63;;
1336;SDS011;662;48.814;9.318;2023-04-03T02:26:47;4.10;;;3.80;;
1336;SDS011;662;48.814;9.318;2023-04-03T02:29:13;3.67;;;3.37;;
1336;SDS011;662;48.814;9.318;2023-04-03T02:31:38;3.60;;;3.33;;
1336;SDS011;662;48.814;9.318;2023-04-03T02:34:04;3.87;;;3.50;;
1336;SDS011;662;48.814;9.318;2023-04-03T02:36:30;3.70;;;3.40;;
1336;SDS011;662;48.814;9.318;2023-04-03T02:38:56;3.63;;;3.33;;
1336;SDS011;662;48.814;9.318;2023-04-03T02:41:22;4.43;;;3.77;;
1336;SDS011;662;48.814;9.318;2023-04-03T02:43:47;4.20;;;3.77;;
1336;SDS011;662;48.814;9.318;2023-04-03T02:46:13;4.57;;;4.17;;
1336;SDS011;662;48.814;9.318;2023-04-03T02:48:40;4.50;;;4.00;;
1336;SDS011;662;48.814;9.318;2023-04-03T02:51:06;3.77;;;3.47;;
1336;SDS011;662;48.814;9.318;2023-04-03T02:53:31;4.13;;;3.73;;
1336;SDS011;662;48.814;9.318;2023-04-03T02:55:57;5.10;;;3.33;;
1336;SDS011;662;48.814;9.318;2023-04-03T02:58:22;4.07;;;3.77;;
1336;SDS011;662;48.814;9.318;2023-04-03T03:00:48;4.87;;;4.37;;
1336;SDS011;662;48.814;9.318;2023-04-03T03:03:14;3.20;;;3.00;;
1336;SDS011;662;48.814;9.318;2023-04-03T03:05:40;3.70;;;3.40;;
1336;SDS011;662;48.814;9.318;2023-04-03T03:08:05;4.13;;;3.73;;
1336;SDS011;662;48.814;9.318;2023-04-03T03:10:31;3.70;;;3.40;;
1336;SDS011;662;48.814;9.318;2023-04-03T03:12:56;4.70;;;3.60;;
1336;SDS011;662;48.814;9.318;2023-04-03T03:15:22;5.90;;;3.70;;
1336;SDS011;662;48.814;9.318;2023-04-03T03:17:48;4.13;;;3.73;;
1336;SDS011;662;48.814;9.318;2023-04-03T03:20:13;3.87;;;3.47;;
1336;SDS011;662;48.814;9.318;2023-04-03T03:22:40;3.57;;;3.30;;
1336;SDS011;662;48.814;9.318;2023-04-03T03:25:06;3.80;;;3.37;;
1336;SDS011;662;48.814;9.318;2023-04-03T03:27:32;3.67;;;3.37;;
1336;SDS011;662;48.814;9.318;2023-04-03T03:29:57;4.80;;;4.10;;
1336;SDS011;662;48.814;9.318;2023-04-03T03:32:23;3.80;;;3.60;;
1336;SDS011;662;48.814;9.318;2023-04-03T03:34:49;3.80;;;3.50;;
1336;SDS011;662;48.814;9.318;2023-04-03T03:37:15;5.47;;;3.20;;
1336;SDS011;662;48.814;9.318;2023-04-03T03:39:40;3.57;;;3.27;;
1336;SDS011;662;48.814;9.318;2023-04-03T03:42:06;3.87;;;3.57;;
1336;SDS011;662;48.814;9.318;2023-04-03T03:44:31;3.93;;;3.03;;
1336;SDS011;662;48.814;9.318;2023-04-03T03:46:57;3.60;;;3.37;;
1336;SDS011;662;48.814;9.318;2023-04-03T03:49:22;3.90;;;3.40;;
1336;SDS011;662;48.814;9.318;2023-04-03T03:51:48;5.63;;;3.40;;
1336;SDS011;662;48.814;9.318;2023-04-03T03:54:14;4.13;;;3.60;;
1336;SDS011;662;48.814;9.318;2023-04-03T03:56:40;3.60;;;3.30;;
1336;SDS011;662;48.814;9.318;2023-04-03T03:59:06;3.77;;;3.47;;
1336;SDS011;662;48.814;9.318;2023-04-03T04:01:32;3.60;;;3.30;;
1336;SDS011;662;48.814;9.318;2023-04-03T04:03:57;3.80;;;3.50;;
1336;SDS011;662;48.814;9.318;2023-04-03T04:06:23;3.50;;;3.20;;
1336;SDS011;662;48.814;9.318;2023-04-03T04:08:49;3.93;;;3.67;;
1336;SDS011;662;48.814;9.318;2023-04-03T04:11:14;5.13;;;4.30;;
1336;SDS011;662;48.814;9.318;2023-04-03T04:13:40;3.57;;;3.27;;
1336;SDS011;662;48.814;9.318;2023-04-03T04:16:06;3.67;;;3.23;;
1336;SDS011;662;48.814;9.318;2023-04-03T04:18:32;3.57;;;3.30;;
1336;SDS011;662;48.814;9.318;2023-04-03T04:20:58;3.73;;;3.23;;
1336;SDS011;662;48.814;9.318;2023-04-03T04:23:24;3.27;;;2.97;;
1336;SDS011;662;48.814;9.318;2023-04-03T04:25:49;3.83;;;3.40;;
1336;SDS011;662;48.814;9.318;2023-04-03T04:28:15;4.40;;;3.77;;
1336;SDS011;662;48.814;9.318;2023-04-03T04:30:41;4.03;;;3.63;;
1336;SDS011;662;48.814;9.318;2023-04-03T04:33:07;3.33;;;3.13;;
1336;SDS011;662;48.814;9.318;2023-04-03T04:35:33;5.63;;;3.40;;
1336;SDS011;662;48.814;9.318;2023-04-03T04:37:59;4.33;;;3.50;;
1336;SDS011;662;48.814;9.318;2023-04-03T04:40:25;3.97;;;3.60;;
1336;SDS011;662;48.814;9.318;2023-04-03T04:42:51;3.57;;;3.20;;
1336;SDS011;662;48.814;9.318;2023-04-03T04:45:16;4.00;;;3.50;;
1336;SDS011;662;48.814;9.318;2023-04-03T04:47:43;3.33;;;3.10;;
1336;SDS011;662;48.814;9.318;2023-04-03T04:50:08;4.43;;;3.87;;
1336;SDS011;662;48.814;9.318;2023-04-03T04:52:34;7.67;;;3.50;;
1336;SDS011;662;48.814;9.318;2023-04-03T04:55:00;7.83;;;3.83;;
1336;SDS011;662;48.814;9.318;2023-04-03T04:57:26;3.60;;;3.30;;
1336;SDS011;662;48.814;9.318;2023-04-03T04:59:52;4.00;;;3.60;;
1336;SDS011;662;48.814;9.318;2023-04-03T05:02:17;4.60;;;3.27;;
1336;SDS011;662;48.814;9.318;2023-04-03T05:04:43;3.07;;;2.87;;
1336;SDS011;662;48.814;9.318;2023-04-03T05:07:09;3.07;;;2.80;;
1336;SDS011;662;48.814;9.318;2023-04-03T05:09:35;4.27;;;3.77;;
1336;SDS011;662;48.814;9.318;2023-04-03T05:12:00;4.13;;;3.33;;
1336;SDS011;662;48.814;9.318;2023-04-03T05:14:28;5.37;;;3.10;;
1336;SDS011;662;48.814;9.318;2023-04-03T05:16:53;4.20;;;3.07;;
1336;SDS011;662;48.814;9.318;2023-04-03T05:19:20;4.40;;;3.40;;
1336;SDS011;662;48.814;9.318;2023-04-03T05:21:46;3.63;;;3.33;;
1336;SDS011;662;48.814;9.318;2023-04-03T05:24:12;3.90;;;3.60;;
1336;SDS011;662;48.814;9.318;2023-04-03T05:26:39;4.20;;;3.60;;
1336;SDS011;662;48.814;9.318;2023-04-03T05:29:05;7.70;;;3.50;;
1336;SDS011;662;48.814;9.318;2023-04-03T05:31:31;5.90;;;3.77;;
1336;SDS011;662;48.814;9.318;2023-04-03T05:33:57;4.93;;;3.60;;
1336;SDS011;662;48.814;9.318;2023-04-03T05:36:23;5.03;;;3.70;;
1336;SDS011;662;48.814;9.318;2023-04-03T05:38:49;4.00;;;3.70;;
1336;SDS011;662;48.814;9.318;2023-04-03T05:41:15;4.27;;;3.87;;
1336;SDS011;662;48.814;9.318;2023-04-03T05:43:41;3.73;;;3.43;;
1336;SDS011;662;48.814;9.318;2023-04-03T05:46:09;3.77;;;3.47;;
1336;SDS011;662;48.814;9.318;2023-04-03T05:48:39;6.70;;;3.93;;
1336;SDS011;662;48.814;9.318;2023-04-03T05:51:05;3.80;;;3.40;;
1336;SDS011;662;48.814;9.318;2023-04-03T05:53:33;4.23;;;3.93;;
1336;SDS011;662;48.814;9.318;2023-04-03T05:56:02;5.27;;;4.20;;
1336;SDS011;662;48.814;9.318;2023-04-03T05:58:28;4.73;;;4.27;;
1336;SDS011;662;48.814;9.318;2023-04-03T06:00:53;4.33;;;3.50;;
1336;SDS011;662;48.814;9.318;2023-04-03T06:03:19;4.00;;;3.60;;
1336;SDS011;662;48.814;9.318;2023-04-03T06:05:45;3.83;;;3.53;;
1336;SDS011;662;48.814;9.318;2023-04-03T06:08:13;5.00;;;3.27;;
1336;SDS011;662;48.814;9.318;2023-04-03T06:10:46;4.90;;;3.53;;
1336;SDS011;662;48.814;9.318;2023-04-03T06:13:17;3.87;;;3.57;;
1336;SDS011;662;48.814;9.318;2023-04-03T06:15:43;5.70;;;3.67;;
1336;SDS011;662;48.814;9.318;2023-04-03T06:18:09;3.83;;;3.50;;
1336;SDS011;662;48.814;9.318;2023-04-03T06:20:35;6.07;;;3.60;;
1336;SDS011;662;48.814;9.318;2023-04-03T06:23:00;5.10;;;3.57;;
1336;SDS011;662;48.814;9.318;2023-04-03T06:25:26;5.53;;;3.80;;
1336;SDS011;662;48.814;9.318;2023-04-03T06:27:52;3.67;;;3.30;;
1336;SDS011;662;48.814;9.318;2023-04-03T06:30:20;4.90;;;3.80;;
1336;SDS011;662;48.814;9.318;2023-04-03T06:32:46;3.60;;;3.30;;
1336;SDS011;662;48.814;9.318;2023-04-03T06:35:11;4.03;;;3.73;;
1336;SDS011;662;48.814;9.318;2023-04-03T06:37:37;6.60;;;4.00;;
1336;SDS011;662;48.814;9.318;2023-04-03T06:40:03;4.00;;;3.63;;
1336;SDS011;662;48.814;9.318;2023-04-03T06:42:29;6.20;;;4.23;;
1336;SDS011;662;48.814;9.318;2023-04-03T06:44:55;4.33;;;3.93;;
1336;SDS011;662;48.814;9.318;2023-04-03T06:47:21;4.33;;;3.40;;
1336;SDS011;662;48.814;9.318;2023-04-03T06:49:46;3.77;;;3.47;;
1336;SDS011;662;48.814;9.318;2023-04-03T06:52:12;4.53;;;3.63;;
1336;SDS011;662;48.814;9.318;2023-04-03T06:54:38;4.00;;;3.00;;
1336;SDS011;662;48.814;9.318;2023-04-03T06:57:05;5.13;;;3.57;;
1336;SDS011;662;48.814;9.318;2023-04-03T06:59:30;5.00;;;3.83;;
1336;SDS011;662;48.814;9.318;2023-04-03T07:01:56;4.97;;;3.37;;
1336;SDS011;662;48.814;9.318;2023-04-03T07:04:23;3.27;;;3.07;;
1336;SDS011;662;48.814;9.318;2023-04-03T07:06:49;6.30;;;3.80;;
1336;SDS011;662;48.814;9.318;2023-04-03T07:09:15;3.77;;;3.47;;
1336;SDS011;662;48.814;9.318;2023-04-03T07:11:41;5.40;;;3.53;;
1336;SDS011;662;48.814;9.318;2023-04-03T07:14:06;5.00;;;3.63;;
1336;SDS011;662;48.814;9.318;2023-04-03T07:16:33;4.50;;;3.57;;
1336;SDS011;662;48.814;9.318;2023-04-03T07:19:00;4.20;;;3.60;;
1336;SDS011;662;48.814;9.318;2023-04-03T07:21:26;3.93;;;3.63;;
1336;SDS011;662;48.814;9.318;2023-04-03T07:23:52;6.00;;;3.43;;
1336;SDS011;662;48.814;9.318;2023-04-03T07:26:18;3.53;;;2.83;;
1336;SDS011;662;48.814;9.318;2023-04-03T07:28:45;4.23;;;3.47;;
1336;SDS011;662;48.814;9.318;2023-04-03T07:31:13;5.27;;;3.43;;
1336;SDS011;662;48.814;9.318;2023-04-03T07:33:40;3.70;;;3.40;;
1336;SDS011;662;48.814;9.318;2023-04-03T07:36:07;3.13;;;2.83;;
1336;SDS011;662;48.814;9.318;2023-04-03T07:38:34;4.03;;;3.00;;
1336;SDS011;662;48.814;9.318;2023-04-03T07:41:01;4.77;;;3.80;;
1336;SDS011;662;48.814;9.318;2023-04-03T07:43:27;4.50;;;3.57;;
1336;SDS011;662;48.814;9.318;2023-04-03T07:45:53;7.63;;;4.07;;
1336;SDS011;662;48.814;9.318;2023-04-03T07:48:22;3.90;;;3.40;;
1336;SDS011;662;48.814;9.318;2023-04-03T07:50:50;6.30;;;3.43;;
1336;SDS011;662;48.814;9.318;2023-04-03T07:53:17;3.23;;;2.93;;
1336;SDS011;662;48.814;9.318;2023-04-03T07:55:42;4.83;;;3.67;;
1336;SDS011;662;48.814;9.318;2023-04-03T07:58:11;3.53;;;3.10;;
1336;SDS011;662;48.814;9.318;2023-04-03T08:00:39;4.20;;;3.43;;
1336;SDS011;662;48.814;9.318;2023-04-03T08:03:06;4.00;;;3.40;;
1336;SDS011;662;48.814;9.318;2023-04-03T08:05:36;4.30;;;3.23;;
1336;SDS011;662;48.814;9.318;2023-04-03T08:08:02;5.37;;;3.30;;
1336;SDS011;662;48.814;9.318;2023-04-03T08:10:32;5.43;;;3.50;;
1336;SDS011;662;48.814;9.318;2023-04-03T08:12:58;4.10;;;3.47;;
1336;SDS011;662;48.814;9.318;2023-04-03T08:15:24;5.03;;;3.40;;
1336;SDS011;662;48.814;9.318;2023-04-03T08:17:50;5.33;;;3.20;;
1336;SDS011;662;48.814;9.318;2023-04-03T08:20:16;5.60;;;3.27;;
1336;SDS011;662;48.814;9.318;2023-04-03T08:22:42;3.70;;;2.57;;
1336;SDS011;662;48.814;9.318;2023-04-03T08:25:08;4.30;;;3.27;;
1336;SDS011;662;48.814;9.318;2023-04-03T08:27:34;3.50;;;3.20;;
1336;SDS011;662;48.814;9.318;2023-04-03T08:30:00;3.30;;;3.00;;
1336;SDS011;662;48.814;9.318;2023-04-03T08:32:26;3.20;;;2.90;;
1336;SDS011;662;48.814;9.318;2023-04-03T08:34:52;5.10;;;3.17;;
1336;SDS011;662;48.814;9.318;2023-04-03T08:37:18;5.30;;;3.30;;
1336;SDS011;662;48.814;9.318;2023-04-03T08:39:44;4.70;;;2.90;;
1336;SDS011;662;48.814;9.318;2023-04-03T08:42:15;3.40;;;2.87;;
1336;SDS011;662;48.814;9.318;2023-04-03T08:48:00;7.63;;;2.93;;
1336;SDS011;662;48.814;9.318;2023-04-03T08:50:41;3.80;;;3.50;;
1336;SDS011;662;48.814;9.318;2023-04-03T08:53:16;5.03;;;3.70;;
1336;SDS011;662;48.814;9.318;2023-04-03T08:55:46;3.77;;;3.43;;
1336;SDS011;662;48.814;9.318;2023-04-03T08:58:26;4.93;;;3.43;;
1336;SDS011;662;48.814;9.318;2023-04-03T09:01:02;6.17;;;3.10;;
1336;SDS011;662;48.814;9.318;2023-04-03T09:03:34;4.67;;;3.10;;
1336;SDS011;662;48.814;9.318;2023-04-03T09:06:03;3.50;;;3.20;;
1336;SDS011;662;48.814;9.318;2023-04-03T09:11:09;4.57;;;2.77;;
1336;SDS011;662;48.814;9.318;2023-04-03T09:16:28;4.10;;;3.50;;
1336;SDS011;662;48.814;9.318;2023-04-03T09:19:02;4.10;;;3.37;;
1336;SDS011;662;48.814;9.318;2023-04-03T09:21:37;6.50;;;3.23;;
1336;SDS011;662;48.814;9.318;2023-04-03T09:24:07;6.87;;;3.37;;
1336;SDS011;662;48.814;9.318;2023-04-03T09:26:54;6.57;;;3.50;;
1336;SDS011;662;48.814;9.318;2023-04-03T09:29:24;4.07;;;3.70;;
1336;SDS011;662;48.814;9.318;2023-04-03T09:31:59;12.93;;;3.60;;
1336;SDS011;662;48.814;9.318;2023-04-03T09:34:32;4.77;;;2.67;;
1336;SDS011;662;48.814;9.318;2023-04-03T09:37:01;4.47;;;3.03;;
1336;SDS011;662;48.814;9.318;2023-04-03T09:39:31;5.83;;;3.00;;
1336;SDS011;662;48.814;9.318;2023-04-03T09:42:18;2.57;;;2.37;;
1336;SDS011;662;48.814;9.318;2023-04-03T09:44:59;3.73;;;2.70;;
1336;SDS011;662;48.814;9.318;2023-04-03T09:52:54;3.37;;;2.87;;
1336;SDS011;662;48.814;9.318;2023-04-03T09:55:21;3.77;;;3.10;;
1336;SDS011;662;48.814;9.318;2023-04-03T09:57:52;3.00;;;2.70;;
1336;SDS011;662;48.814;9.318;2023-04-03T10:00:20;3.13;;;2.67;;
1336;SDS011;662;48.814;9.318;2023-04-03T10:02:50;4.40;;;3.20;;
1336;SDS011;662;48.814;9.318;2023-04-03T10:08:06;3.47;;;2.67;;
1336;SDS011;662;48.814;9.318;2023-04-03T10:10:45;4.23;;;3.03;;
1336;SDS011;662;48.814;9.318;2023-04-03T10:13:16;3.40;;;2.77;;
1336;SDS011;662;48.814;9.318;2023-04-03T10:21:29;4.20;;;3.80;;
1336;SDS011;662;48.814;9.318;2023-04-03T10:24:10;3.27;;;2.83;;
1336;SDS011;662;48.814;9.318;2023-04-03T10:34:53;3.70;;;3.00;;
1336;SDS011;662;48.814;9.318;2023-04-03T10:37:40;5.87;;;3.53;;
1336;SDS011;662;48.814;9.318;2023-04-03T10:40:23;4.43;;;2.70;;
1336;SDS011;662;48.814;9.318;2023-04-03T10:46:18;4.00;;;2.70;;
1336;SDS011;662;48.814;9.318;2023-04-03T10:48:53;2.77;;;2.37;;
1336;SDS011;662;48.814;9.318;2023-04-03T10:51:48;4.10;;;2.53;;
1336;SDS011;662;48.814;9.318;2023-04-03T10:54:26;3.13;;;2.63;;
1336;SDS011;662;48.814;9.318;2023-04-03T10:57:04;2.63;;;2.10;;
1336;SDS011;662;48.814;9.318;2023-04-03T10:59:51;3.07;;;2.30;;
1336;SDS011;662;48.814;9.318;2023-04-03T11:02:26;2.50;;;2.30;;
1336;SDS011;662;48.814;9.318;2023-04-03T11:04:59;3.13;;;2.10;;
1336;SDS011;662;48.814;9.318;2023-04-03T11:07:32;4.07;;;2.77;;
1336;SDS011;662;48.814;9.318;2023-04-03T11:10:03;3.47;;;2.20;;
1336;SDS011;662;48.814;9.318;2023-04-03T11:12:51;2.67;;;2.07;;
1336;SDS011;662;48.814;9.318;2023-04-03T11:15:21;2.60;;;1.83;;
1336;SDS011;662;48.814;9.318;2023-04-03T11:18:00;2.90;;;2.00;;
1336;SDS011;662;48.814;9.318;2023-04-03T11:20:31;3.30;;;2.40;;
1336;SDS011;662;48.814;9.318;2023-04-03T11:25:47;6.00;;;2.40;;
1336;SDS011;662;48.814;9.318;2023-04-03T11:28:17;3.20;;;2.30;;
1336;SDS011;662;48.814;9.318;2023-04-03T11:36:08;3.50;;;2.80;;
1336;SDS011;662;48.814;9.318;2023-04-03T11:38:43;4.40;;;3.03;;
1336;SDS011;662;48.814;9.318;2023-04-03T11:41:25;8.50;;;3.33;;
1336;SDS011;662;48.814;9.318;2023-04-03T12:08:42;8.47;;;3.00;;
1336;SDS011;662;48.814;9.318;2023-04-03T12:11:15;2.63;;;2.43;;
1336;SDS011;662;48.814;9.318;2023-04-03T12:16:23;4.67;;;2.63;;
1336;SDS011;662;48.814;9.318;2023-04-03T12:18:59;3.83;;;3.30;;
1336;SDS011;662;48.814;9.318;2023-04-03T12:23:57;2.70;;;2.20;;
1336;SDS011;662;48.814;9.318;2023-04-03T12:29:27;3.70;;;2.13;;
1336;SDS011;662;48.814;9.318;2023-04-03T12:45:47;10.83;;;3.20;;
1336;SDS011;662;48.814;9.318;2023-04-03T12:48:15;3.80;;;2.63;;
1336;SDS011;662;48.814;9.318;2023-04-03T12:50:43;5.73;;;2.90;;
1336;SDS011;662;48.814;9.318;2023-04-03T12:53:12;3.30;;;3.10;;
1336;SDS011;662;48.814;9.318;2023-04-03T12:55:44;3.30;;;2.20;;
1336;SDS011;662;48.814;9.318;2023-04-03T12:58:13;6.90;;;2.30;;
1336;SDS011;662;48.814;9.318;2023-04-03T13:00:41;4.00;;;1.90;;
1336;SDS011;662;48.814;9.318;2023-04-03T13:03:17;3.83;;;2.53;;
1336;SDS011;662;48.814;9.318;2023-04-03T13:05:48;8.93;;;3.07;;
1336;SDS011;662;48.814;9.318;2023-04-03T13:08:13;2.93;;;2.73;;
1336;SDS011;662;48.814;9.318;2023-04-03T13:11:14;4.73;;;2.63;;
1336;SDS011;662;48.814;9.318;2023-04-03T13:13:37;7.70;;;3.20;;
1336;SDS011;662;48.814;9.318;2023-04-03T13:16:08;4.80;;;2.53;;
1336;SDS011;662;48.814;9.318;2023-04-03T13:18:36;3.53;;;2.80;;
1336;SDS011;662;48.814;9.318;2023-04-03T13:23:40;2.30;;;2.10;;
1336;SDS011;662;48.814;9.318;2023-04-03T13:26:10;4.50;;;2.50;;
1336;SDS011;662;48.814;9.318;2023-04-03T13:28:38;2.50;;;2.30;;
1336;SDS011;662;48.814;9.318;2023-04-03T13:31:48;2.60;;;2.40;;
1336;SDS011;662;48.814;9.318;2023-04-03T13:33:57;2.40;;;2.20;;
1336;SDS011;662;48.814;9.318;2023-04-03T13:37:11;2.10;;;2.00;;
1336;SDS011;662;48.814;9.318;2023-04-03T13:39:23;2.30;;;2.10;;
1336;SDS011;662;48.814;9.318;2023-04-03T13:41:52;2.83;;;2.00;;
1336;SDS011;662;48.814;9.318;2023-04-03T13:46:52;3.93;;;2.30;;
1336;SDS011;662;48.814;9.318;2023-04-03T13:51:54;3.33;;;2.67;;
1336;SDS011;662;48.814;9.318;2023-04-03T13:54:22;4.03;;;2.70;;
1336;SDS011;662;48.814;9.318;2023-04-03T13:56:54;4.10;;;2.77;;
1336;SDS011;662;48.814;9.318;2023-04-03T13:59:34;3.60;;;2.80;;
1336;SDS011;662;48.814;9.318;2023-04-03T14:04:27;4.17;;;2.70;;
1336;SDS011;662;48.814;9.318;2023-04-03T14:07:14;3.37;;;2.37;;
1336;SDS011;662;48.814;9.318;2023-04-03T14:09:41;3.27;;;2.50;;
1336;SDS011;662;48.814;9.318;2023-04-03T14:12:12;4.27;;;3.03;;
1336;SDS011;662;48.814;9.318;2023-04-03T14:14:41;3.07;;;2.67;;
1336;SDS011;662;48.814;9.318;2023-04-03T14:17:15;2.73;;;2.50;;
1336;SDS011;662;48.814;9.318;2023-04-03T14:19:42;2.73;;;2.30;;
1336;SDS011;662;48.814;9.318;2023-04-03T14:22:21;2.67;;;2.47;;
1336;SDS011;662;48.814;9.318;2023-04-03T14:24:50;3.17;;;2.67;;
1336;SDS011;662;48.814;9.318;2023-04-03T14:27:21;5.50;;;3.17;;
1336;SDS011;662;48.814;9.318;2023-04-03T14:30:02;3.90;;;2.50;;
1336;SDS011;662;48.814;9.318;2023-04-03T14:32:29;2.87;;;2.57;;
1336;SDS011;662;48.814;9.318;2023-04-03T14:34:55;2.53;;;2.33;;
1336;SDS011;662;48.814;9.318;2023-04-03T14:37:24;3.20;;;2.53;;
1336;SDS011;662;48.814;9.318;2023-04-03T14:39:52;4.30;;;2.87;;
1336;SDS011;662;48.814;9.318;2023-04-03T14:42:21;5.13;;;2.87;;
1336;SDS011;662;48.814;9.318;2023-04-03T14:44:48;3.13;;;2.70;;
1336;SDS011;662;48.814;9.318;2023-04-03T14:47:16;4.40;;;2.90;;
1336;SDS011;662;48.814;9.318;2023-04-03T14:49:46;3.30;;;2.73;;
1336;SDS011;662;48.814;9.318;2023-04-03T14:52:18;9.00;;;3.03;;
1336;SDS011;662;48.814;9.318;2023-04-03T14:54:46;4.57;;;3.10;;
1336;SDS011;662;48.814;9.318;2023-04-03T14:57:13;4.90;;;2.70;;
1336;SDS011;662;48.814;9.318;2023-04-03T14:59:40;2.60;;;2.27;;
1336;SDS011;662;48.814;9.318;2023-04-03T15:02:26;4.90;;;2.90;;
1336;SDS011;662;48.814;9.318;2023-04-03T15:04:53;5.27;;;2.67;;
1336;SDS011;662;48.814;9.318;2023-04-03T15:07:19;6.07;;;2.93;;
1336;SDS011;662;48.814;9.318;2023-04-03T15:09:46;2.50;;;2.30;;
1336;SDS011;662;48.814;9.318;2023-04-03T15:12:11;4.73;;;2.63;;
1336;SDS011;662;48.814;9.318;2023-04-03T15:14:37;12.37;;;3.50;;
1336;SDS011;662;48.814;9.318;2023-04-03T15:17:06;7.00;;;3.00;;
1336;SDS011;662;48.814;9.318;2023-04-03T15:19:41;8.73;;;3.13;;
1336;SDS011;662;48.814;9.318;2023-04-03T15:22:15;5.97;;;3.50;;
1336;SDS011;662;48.814;9.318;2023-04-03T15:24:43;2.30;;;2.10;;
1336;SDS011;662;48.814;9.318;2023-04-03T15:27:09;2.57;;;2.20;;
1336;SDS011;662;48.814;9.318;2023-04-03T15:29:37;3.40;;;2.40;;
1336;SDS011;662;48.814;9.318;2023-04-03T15:32:04;3.93;;;2.60;;
1336;SDS011;662;48.814;9.318;2023-04-03T15:34:30;2.70;;;2.50;;
1336;SDS011;662;48.814;9.318;2023-04-03T15:36:56;3.70;;;2.80;;
1336;SDS011;662;48.814;9.318;2023-04-03T15:39:22;2.50;;;2.30;;
1336;SDS011;662;48.814;9.318;2023-04-03T15:41:49;3.33;;;3.00;;
1336;SDS011;662;48.814;9.318;2023-04-03T15:44:16;2.83;;;2.63;;
1336;SDS011;662;48.814;9.318;2023-04-03T15:46:47;4.27;;;2.23;;
1336;SDS011;662;48.814;9.318;2023-04-03T15:49:16;3.00;;;2.40;;
1336;SDS011;662;48.814;9.318;2023-04-03T15:51:42;3.33;;;2.77;;
1336;SDS011;662;48.814;9.318;2023-04-03T15:54:08;2.60;;;2.40;;
1336;SDS011;662;48.814;9.318;2023-04-03T15:56:33;3.00;;;2.40;;
1336;SDS011;662;48.814;9.318;2023-04-03T15:58:59;2.60;;;2.40;;
1336;SDS011;662;48.814;9.318;2023-04-03T16:01:25;6.27;;;2.67;;
1336;SDS011;662;48.814;9.318;2023-04-03T16:03:51;4.00;;;2.30;;
1336;SDS011;662;48.814;9.318;2023-04-03T16:06:17;2.03;;;1.93;;
1336;SDS011;662;48.814;9.318;2023-04-03T16:08:44;2.70;;;2.50;;
1336;SDS011;662;48.814;9.318;2023-04-03T16:11:11;2.60;;;2.40;;
1336;SDS011;662;48.814;9.318;2023-04-03T16:13:37;3.67;;;2.30;;
1336;SDS011;662;48.814;9.318;2023-04-03T16:16:02;3.40;;;2.40;;
1336;SDS011;662;48.814;9.318;2023-04-03T16:18:30;8.73;;;6.03;;
1336;SDS011;662;48.814;9.318;2023-04-03T16:20:56;3.43;;;2.60;;
1336;SDS011;662;48.814;9.318;2023-04-03T16:23:22;3.03;;;2.30;;
1336;SDS011;662;48.814;9.318;2023-04-03T16:25:48;3.30;;;2.50;;
1336;SDS011;662;48.814;9.318;2023-04-03T16:28:15;2.67;;;2.37;;
1336;SDS011;662;48.814;9.318;2023-04-03T16:30:45;4.67;;;2.50;;
1336;SDS011;662;48.814;9.318;2023-04-03T16:33:12;2.90;;;2.67;;
1336;SDS011;662;48.814;9.318;2023-04-03T16:35:38;2.80;;;2.60;;
1336;SDS011;662;48.814;9.318;2023-04-03T16:38:04;3.23;;;2.70;;
1336;SDS011;662;48.814;9.318;2023-04-03T16:40:30;2.80;;;2.10;;
1336;SDS011;662;48.814;9.318;2023-04-03T16:42:56;2.60;;;2.40;;
1336;SDS011;662;48.814;9.318;2023-04-03T16:45:21;3.47;;;2.40;;
1336;SDS011;662;48.814;9.318;2023-04-03T16:47:47;2.83;;;2.37;;
1336;SDS011;662;48.814;9.318;2023-04-03T16:50:13;4.03;;;2.80;;
1336;SDS011;662;48.814;9.318;2023-04-03T16:52:39;3.90;;;2.87;;
1336;SDS011;662;48.814;9.318;2023-04-03T16:55:05;3.77;;;2.67;;
1336;SDS011;662;48.814;9.318;2023-04-03T16:57:31;3.17;;;2.87;;
1336;SDS011;662;48.814;9.318;2023-04-03T16:59:56;2.67;;;2.40;;
1336;SDS011;662;48.814;9.318;2023-04-03T17:02:22;4.30;;;3.10;;
1336;SDS011;662;48.814;9.318;2023-04-03T17:04:50;2.40;;;2.20;;
1336;SDS011;662;48.814;9.318;2023-04-03T17:07:17;3.77;;;2.60;;
1336;SDS011;662;48.814;9.318;2023-04-03T17:09:46;3.33;;;2.87;;
1336;SDS011;662;48.814;9.318;2023-04-03T17:12:12;2.77;;;2.53;;
1336;SDS011;662;48.814;9.318;2023-04-03T17:14:38;2.90;;;2.70;;
1336;SDS011;662;48.814;9.318;2023-04-03T17:17:04;4.53;;;2.77;;
1336;SDS011;662;48.814;9.318;2023-04-03T17:19:30;3.63;;;2.60;;
1336;SDS011;662;48.814;9.318;2023-04-03T17:21:56;3.93;;;3.17;;
1336;SDS011;662;48.814;9.318;2023-04-03T17:24:22;3.73;;;2.80;;